Back to Top

Language: 

My Weather Underground Personal Weather Station Historical Data with Graphs...

Delerius Weather Station Historical Data
Daily Summary for January 20, 2018 Units:  English    Metric   Both
« Previous Day
Next Day »
Daily Weekly Monthly Yearly Custom
  High: Low: Average:
Temperature: 38.5 °F 30.6 °F 35.4 °F
Dew Point: 37.2 °F 28.7 °F 33.3 °F
Humidity: 95 % 88 % 92 %
Wind Speed: 15.0 mph 0.0 mph 2.8 mph
Wind Gust: 24.0 mph - -
Wind:- - WNW
Pressure: 29.86 in 29.51 in -
Precipitation: 0.02 in    
Historical Graphs
 
 
Tabular Data for January 20, 2018
Time Temperature Dew Point Pressure Wind Wind Speed Wind Gust Humidity Rainfall Rate (Hourly) solar Conditions
00:02 36.5 °F 34.1 °F 29.64 in West 11.0 mph 19.0 mph 91 % 0.00 in 0 W/m2
00:07 36.7 °F 34.3 °F 29.64 in WNW 11.0 mph 18.0 mph 91 % 0.00 in 0 W/m2
00:12 36.7 °F 34.3 °F 29.64 in West 11.0 mph 15.0 mph 91 % 0.00 in 0 W/m2
00:17 36.7 °F 34.0 °F 29.64 in West 10.0 mph 15.0 mph 90 % 0.00 in 0 W/m2
00:22 36.9 °F 34.2 °F 29.63 in WNW 10.0 mph 18.0 mph 90 % 0.00 in 0 W/m2
00:27 36.7 °F 34.0 °F 29.63 in WNW 10.0 mph 15.0 mph 90 % 0.00 in 0 W/m2
00:32 36.7 °F 34.0 °F 29.63 in West 10.0 mph 19.0 mph 90 % 0.00 in 0 W/m2
00:37 36.7 °F 34.0 °F 29.63 in West 9.0 mph 13.0 mph 90 % 0.00 in 0 W/m2
00:42 36.7 °F 34.0 °F 29.63 in West 9.0 mph 14.0 mph 90 % 0.00 in 0 W/m2
00:47 36.9 °F 34.2 °F 29.63 in West 10.0 mph 16.0 mph 90 % 0.00 in 0 W/m2
00:52 36.9 °F 33.9 °F 29.63 in West 10.0 mph 15.0 mph 89 % 0.00 in 0 W/m2
00:57 36.9 °F 33.9 °F 29.63 in West 10.0 mph 15.0 mph 89 % 0.00 in 0 W/m2
01:02 36.7 °F 33.7 °F 29.62 in West 8.0 mph 13.0 mph 89 % 0.00 in 0 W/m2
01:07 36.7 °F 33.7 °F 29.62 in West 13.0 mph 20.0 mph 89 % 0.00 in 0 W/m2
01:12 36.7 °F 33.7 °F 29.62 in West 15.0 mph 24.0 mph 89 % 0.00 in 0 W/m2
01:17 36.7 °F 33.7 °F 29.62 in West 10.0 mph 18.0 mph 89 % 0.00 in 0 W/m2
01:23 36.7 °F 33.7 °F 29.62 in West 11.0 mph 19.0 mph 89 % 0.00 in 0 W/m2
01:28 36.7 °F 33.7 °F 29.62 in West 12.0 mph 20.0 mph 89 % 0.00 in 0 W/m2
01:33 36.5 °F 33.6 °F 29.62 in West 10.0 mph 14.0 mph 89 % 0.00 in 0 W/m2
01:38 36.3 °F 33.4 °F 29.62 in West 6.0 mph 10.0 mph 89 % 0.00 in 0 W/m2
01:43 36.1 °F 33.2 °F 29.61 in WSW 8.0 mph 14.0 mph 89 % 0.00 in 0 W/m2
01:48 36.0 °F 33.0 °F 29.61 in WSW 6.0 mph 10.0 mph 89 % 0.00 in 0 W/m2
01:53 36.0 °F 33.0 °F 29.61 in WSW 7.0 mph 11.0 mph 89 % 0.00 in 0 W/m2
01:58 36.1 °F 33.2 °F 29.61 in SW 7.0 mph 11.0 mph 89 % 0.00 in 0 W/m2
02:03 36.1 °F 33.2 °F 29.61 in WSW 5.0 mph 9.0 mph 89 % 0.00 in 0 W/m2
02:08 36.3 °F 33.4 °F 29.61 in WSW 5.0 mph 13.0 mph 89 % 0.00 in 0 W/m2
02:13 36.1 °F 33.2 °F 29.61 in WSW 3.0 mph 7.0 mph 89 % 0.00 in 0 W/m2
02:18 36.1 °F 33.2 °F 29.61 in West 2.0 mph 4.0 mph 89 % 0.00 in 0 W/m2
02:23 36.1 °F 33.2 °F 29.60 in West 2.0 mph 7.0 mph 89 % 0.00 in 0 W/m2
02:28 36.0 °F 33.0 °F 29.60 in West 1.0 mph 4.0 mph 89 % 0.00 in 0 W/m2
02:33 36.0 °F 33.0 °F 29.60 in WSW 1.0 mph 7.0 mph 89 % 0.00 in 0 W/m2
02:38 35.8 °F 32.9 °F 29.60 in WSW 4.0 mph 7.0 mph 89 % 0.00 in 0 W/m2
02:43 35.8 °F 33.1 °F 29.60 in West 6.0 mph 10.0 mph 90 % 0.00 in 0 W/m2
02:48 35.8 °F 32.9 °F 29.60 in WSW 4.0 mph 6.0 mph 89 % 0.00 in 0 W/m2
02:53 35.8 °F 32.9 °F 29.59 in West 5.0 mph 8.0 mph 89 % 0.00 in 0 W/m2
02:58 35.8 °F 32.9 °F 29.59 in West 4.0 mph 5.0 mph 89 % 0.00 in 0 W/m2
03:03 35.8 °F 32.9 °F 29.59 in West 4.0 mph 6.0 mph 89 % 0.00 in 0 W/m2
03:08 35.6 °F 32.7 °F 29.59 in West 6.0 mph 9.0 mph 89 % 0.00 in 0 W/m2
03:13 35.6 °F 32.7 °F 29.58 in West 6.0 mph 10.0 mph 89 % 0.00 in 0 W/m2
03:18 35.6 °F 32.7 °F 29.58 in West 6.0 mph 9.0 mph 89 % 0.00 in 0 W/m2
03:23 35.8 °F 32.9 °F 29.59 in West 5.0 mph 8.0 mph 89 % 0.00 in 0 W/m2
03:28 35.8 °F 32.9 °F 29.58 in West 5.0 mph 7.0 mph 89 % 0.00 in 0 W/m2
03:33 35.6 °F 32.7 °F 29.58 in West 4.0 mph 6.0 mph 89 % 0.00 in 0 W/m2
03:38 35.4 °F 32.5 °F 29.58 in West 4.0 mph 8.0 mph 89 % 0.00 in 0 W/m2
03:43 35.6 °F 32.7 °F 29.58 in WSW 4.0 mph 7.0 mph 89 % 0.00 in 0 W/m2
03:48 35.8 °F 32.9 °F 29.58 in WSW 1.0 mph 4.0 mph 89 % 0.00 in 0 W/m2
03:53 35.6 °F 32.7 °F 29.58 in Calm   1.0 mph 89 % 0.00 in 0 W/m2
03:58 35.2 °F 32.3 °F 29.58 in Calm     89 % 0.00 in 0 W/m2
04:03 35.1 °F 31.9 °F 29.58 in Calm     88 % 0.00 in 0 W/m2
04:08 34.9 °F 32.0 °F 29.57 in Calm   1.0 mph 89 % 0.00 in 0 W/m2
04:13 34.7 °F 31.8 °F 29.57 in Calm     89 % 0.00 in 0 W/m2
04:18 34.5 °F 31.6 °F 29.57 in Calm   1.0 mph 89 % 0.00 in 0 W/m2
04:23 34.3 °F 31.7 °F 29.57 in Calm     90 % 0.00 in 0 W/m2
04:28 34.3 °F 31.7 °F 29.56 in Calm     90 % 0.00 in 0 W/m2
04:33 34.3 °F 31.7 °F 29.56 in Calm   2.0 mph 90 % 0.00 in 0 W/m2
04:38 34.3 °F 31.7 °F 29.56 in WSW 1.0 mph 3.0 mph 90 % 0.00 in 0 W/m2
04:43 34.3 °F 32.0 °F 29.56 in West 2.0 mph 5.0 mph 91 % 0.00 in 0 W/m2
04:49 34.3 °F 32.0 °F 29.56 in West 2.0 mph 4.0 mph 91 % 0.00 in 0 W/m2
04:54 34.3 °F 32.0 °F 29.56 in West 2.0 mph 5.0 mph 91 % 0.00 in 0 W/m2
04:59 34.3 °F 32.0 °F 29.56 in West 2.0 mph 5.0 mph 91 % 0.00 in 0 W/m2
05:04 34.3 °F 32.0 °F 29.55 in Calm   2.0 mph 91 % 0.00 in 0 W/m2
05:09 34.3 °F 32.0 °F 29.55 in SW 2.0 mph 5.0 mph 91 % 0.00 in 0 W/m2
05:14 34.5 °F 32.2 °F 29.54 in WSW 2.0 mph 5.0 mph 91 % 0.00 in 0 W/m2
05:19 34.5 °F 32.2 °F 29.54 in WSW 4.0 mph 7.0 mph 91 % 0.00 in 0 W/m2
05:24 34.9 °F 32.5 °F 29.54 in SW 5.0 mph 8.0 mph 91 % 0.00 in 0 W/m2
05:29 35.1 °F 32.7 °F 29.54 in WSW 5.0 mph 9.0 mph 91 % 0.00 in 0 W/m2
05:34 35.2 °F 32.9 °F 29.55 in WSW 6.0 mph 10.0 mph 91 % 0.00 in 0 W/m2
05:39 35.6 °F 33.2 °F 29.55 in WSW 6.0 mph 10.0 mph 91 % 0.00 in 0 W/m2
05:44 35.8 °F 33.4 °F 29.55 in WSW 6.0 mph 8.0 mph 91 % 0.00 in 0 W/m2
05:49 35.8 °F 33.1 °F 29.55 in WSW 6.0 mph 7.0 mph 90 % 0.00 in 0 W/m2
05:54 35.8 °F 33.1 °F 29.54 in West 2.0 mph 4.0 mph 90 % 0.00 in 0 W/m2
05:59 35.6 °F 33.0 °F 29.54 in West 2.0 mph 4.0 mph 90 % 0.00 in 0 W/m2
06:04 35.4 °F 32.8 °F 29.54 in West 2.0 mph 5.0 mph 90 % 0.00 in 0 W/m2
06:09 35.2 °F 32.6 °F 29.54 in West 2.0 mph 5.0 mph 90 % 0.00 in 0 W/m2
06:14 35.2 °F 32.6 °F 29.53 in West 2.0 mph 5.0 mph 90 % 0.00 in 0 W/m2
06:19 35.2 °F 32.9 °F 29.54 in Calm   1.0 mph 91 % 0.00 in 0 W/m2
06:24 35.2 °F 32.9 °F 29.54 in Calm   1.0 mph 91 % 0.00 in 0 W/m2
06:29 35.2 °F 32.9 °F 29.53 in West 1.0 mph 4.0 mph 91 % 0.00 in 0 W/m2
06:34 35.2 °F 32.9 °F 29.54 in West 1.0 mph 3.0 mph 91 % 0.00 in 0 W/m2
06:39 35.1 °F 32.7 °F 29.54 in Calm     91 % 0.00 in 0 W/m2
06:44 35.1 °F 32.7 °F 29.53 in Calm     91 % 0.00 in 0 W/m2
06:49 34.9 °F 32.5 °F 29.53 in Calm   2.0 mph 91 % 0.00 in 0 W/m2
06:54 34.9 °F 32.5 °F 29.53 in Calm   1.0 mph 91 % 0.00 in 0 W/m2
06:59 34.9 °F 32.5 °F 29.53 in Calm   3.0 mph 91 % 0.00 in 0 W/m2
07:04 35.1 °F 32.7 °F 29.53 in Calm   3.0 mph 91 % 0.00 in 0 W/m2
07:09 35.1 °F 32.7 °F 29.53 in Calm   1.0 mph 91 % 0.00 in 0 W/m2
07:14 35.1 °F 32.7 °F 29.52 in Calm     91 % 0.00 in 0 W/m2
07:19 35.1 °F 32.7 °F 29.52 in Calm   2.0 mph 91 % 0.00 in 0 W/m2
07:24 35.1 °F 32.7 °F 29.52 in Calm     91 % 0.00 in 0 W/m2
07:29 35.1 °F 32.7 °F 29.52 in West 1.0 mph 3.0 mph 91 % 0.00 in 0 W/m2
07:35 34.9 °F 32.5 °F 29.52 in West 2.0 mph 4.0 mph 91 % 0.00 in 0 W/m2
07:40 35.1 °F 33.0 °F 29.52 in West 3.0 mph 7.0 mph 92 % 0.00 in 0 W/m2
07:45 35.1 °F 33.0 °F 29.52 in West 2.0 mph 5.0 mph 92 % 0.00 in 0 W/m2
07:50 35.1 °F 33.0 °F 29.52 in Calm     92 % 0.00 in 0 W/m2
07:55 35.1 °F 32.7 °F 29.52 in Calm     91 % 0.00 in 0 W/m2
08:00 35.1 °F 33.0 °F 29.52 in Calm   2.0 mph 92 % 0.00 in 0 W/m2
08:05 35.1 °F 33.0 °F 29.52 in Calm     92 % 0.00 in 0 W/m2
08:10 35.1 °F 33.0 °F 29.52 in Calm     92 % 0.00 in 0 W/m2
08:15 35.1 °F 33.0 °F 29.52 in Calm     92 % 0.00 in 0 W/m2
08:20 35.1 °F 33.0 °F 29.52 in Calm     92 % 0.00 in 5 W/m2
08:25 35.1 °F 33.0 °F 29.52 in Calm     92 % 0.00 in 5 W/m2
08:30 35.1 °F 33.0 °F 29.52 in Calm   2.0 mph 92 % 0.00 in 7 W/m2
08:35 35.1 °F 33.0 °F 29.51 in West 2.0 mph 5.0 mph 92 % 0.00 in 11 W/m2
08:40 35.2 °F 33.1 °F 29.51 in West 2.0 mph 5.0 mph 92 % 0.00 in 9 W/m2
08:45 35.4 °F 33.3 °F 29.51 in Calm     92 % 0.00 in 9 W/m2
08:50 35.4 °F 33.3 °F 29.52 in Calm     92 % 0.00 in 14 W/m2
08:55 35.4 °F 33.3 °F 29.52 in Calm     92 % 0.00 in 21 W/m2
09:00 35.4 °F 33.3 °F 29.52 in Calm     92 % 0.00 in 12 W/m2
09:05 35.4 °F 33.3 °F 29.52 in West 3.0 mph 5.0 mph 92 % 0.00 in 14 W/m2
09:10 35.6 °F 33.5 °F 29.52 in West 2.0 mph 5.0 mph 92 % 0.00 in 14 W/m2
09:15 35.8 °F 33.7 °F 29.52 in West 2.0 mph 4.0 mph 92 % 0.00 in 25 W/m2
09:20 35.8 °F 33.7 °F 29.52 in Calm   2.0 mph 92 % 0.00 in 19 W/m2
09:25 35.8 °F 33.7 °F 29.52 in Calm     92 % 0.00 in 23 W/m2
09:30 36.0 °F 33.9 °F 29.52 in Calm     92 % 0.00 in 49 W/m2
09:35 36.0 °F 33.9 °F 29.52 in Calm     92 % 0.00 in 35 W/m2
09:40 36.0 °F 33.9 °F 29.52 in Calm     92 % 0.00 in 33 W/m2
09:45 36.0 °F 33.9 °F 29.52 in Calm     92 % 0.00 in 51 W/m2
09:50 36.0 °F 33.9 °F 29.52 in Calm     92 % 0.00 in 56 W/m2
09:55 36.1 °F 34.0 °F 29.52 in Calm     92 % 0.00 in 51 W/m2
10:00 36.1 °F 34.0 °F 29.52 in Calm     92 % 0.00 in 60 W/m2
10:05 36.3 °F 34.2 °F 29.52 in Calm     92 % 0.00 in 42 W/m2
10:10 36.5 °F 34.4 °F 29.52 in Calm     92 % 0.00 in 33 W/m2
10:15 36.5 °F 34.4 °F 29.53 in Calm     92 % 0.00 in 33 W/m2
10:20 36.7 °F 34.6 °F 29.53 in Calm     92 % 0.00 in 30 W/m2
10:26 36.7 °F 34.6 °F 29.52 in Calm     92 % 0.00 in 28 W/m2
10:31 36.7 °F 34.6 °F 29.52 in Calm     92 % 0.00 in 25 W/m2
10:36 36.7 °F 34.6 °F 29.53 in Calm     92 % 0.00 in 26 W/m2
10:41 36.9 °F 34.8 °F 29.53 in Calm     92 % 0.00 in 26 W/m2
10:46 36.9 °F 34.8 °F 29.53 in Calm     92 % 0.00 in 26 W/m2
10:51 36.9 °F 34.8 °F 29.53 in Calm     92 % 0.00 in 26 W/m2
10:56 36.9 °F 34.8 °F 29.53 in Calm     92 % 0.00 in 37 W/m2
11:01 37.0 °F 34.9 °F 29.53 in Calm     92 % 0.00 in 39 W/m2
11:06 37.0 °F 34.9 °F 29.53 in Calm     92 % 0.00 in 33 W/m2
11:11 37.0 °F 34.9 °F 29.52 in Calm     92 % 0.00 in 37 W/m2
11:16 37.2 °F 35.1 °F 29.52 in Calm     92 % 0.00 in 58 W/m2
11:21 37.2 °F 35.1 °F 29.52 in Calm     92 % 0.01 in 65 W/m2
11:26 37.2 °F 35.4 °F 29.52 in Calm     93 % 0.01 in 69 W/m2
11:31 37.4 °F 35.6 °F 29.52 in Calm     93 % 0.01 in 65 W/m2
11:36 37.4 °F 35.6 °F 29.53 in Calm     93 % 0.01 in 51 W/m2
11:41 37.6 °F 35.7 °F 29.52 in Calm     93 % 0.01 in 49 W/m2
11:46 37.6 °F 35.7 °F 29.52 in Calm     93 % 0.01 in 49 W/m2
11:51 37.6 °F 35.7 °F 29.52 in Calm     93 % 0.01 in 56 W/m2
11:56 37.6 °F 35.7 °F 29.52 in Calm     93 % 0.01 in 62 W/m2
12:01 37.6 °F 35.7 °F 29.52 in Calm     93 % 0.01 in 58 W/m2
12:06 37.6 °F 35.7 °F 29.51 in Calm     93 % 0.01 in 47 W/m2
12:11 37.6 °F 35.7 °F 29.51 in Calm     93 % 0.01 in 42 W/m2
12:16 37.6 °F 35.7 °F 29.52 in Calm     93 % 0.01 in 37 W/m2
12:21 37.6 °F 35.7 °F 29.51 in Calm     93 % 0.00 in 37 W/m2
12:26 37.6 °F 35.7 °F 29.51 in Calm     93 % 0.00 in 39 W/m2
12:31 37.6 °F 35.7 °F 29.51 in Calm     93 % 0.00 in 40 W/m2
12:36 37.6 °F 35.7 °F 29.51 in Calm     93 % 0.00 in 39 W/m2
12:42 37.6 °F 36.0 °F 29.51 in Calm     94 % 0.00 in 39 W/m2
12:47 37.6 °F 36.0 °F 29.51 in Calm     94 % 0.00 in 42 W/m2
12:52 37.8 °F 36.2 °F 29.52 in Calm     94 % 0.01 in 46 W/m2
12:57 37.8 °F 36.2 °F 29.51 in Calm     94 % 0.01 in 46 W/m2
13:02 37.8 °F 36.2 °F 29.52 in Calm     94 % 0.01 in 49 W/m2
13:07 37.8 °F 35.9 °F 29.52 in North 3.0 mph 5.0 mph 93 % 0.01 in 54 W/m2
13:12 37.8 °F 35.9 °F 29.52 in North 1.0 mph 4.0 mph 93 % 0.01 in 56 W/m2
13:17 37.8 °F 35.9 °F 29.52 in North 2.0 mph 5.0 mph 93 % 0.01 in 49 W/m2
13:22 37.8 °F 36.2 °F 29.52 in Calm   2.0 mph 94 % 0.01 in 46 W/m2
13:27 37.9 °F 36.4 °F 29.52 in North 2.0 mph 4.0 mph 94 % 0.01 in 46 W/m2
13:32 37.9 °F 36.4 °F 29.52 in Calm   2.0 mph 94 % 0.02 in 49 W/m2
13:37 37.9 °F 36.4 °F 29.52 in NW 3.0 mph 6.0 mph 94 % 0.02 in 54 W/m2
13:42 37.9 °F 36.4 °F 29.52 in West 1.0 mph 5.0 mph 94 % 0.02 in 70 W/m2
13:47 37.9 °F 36.4 °F 29.52 in Calm     94 % 0.02 in 86 W/m2
13:52 37.9 °F 36.4 °F 29.52 in West 2.0 mph 4.0 mph 94 % 0.01 in 118 W/m2
13:57 38.1 °F 36.5 °F 29.52 in West 3.0 mph 5.0 mph 94 % 0.01 in 127 W/m2
14:02 38.1 °F 36.5 °F 29.52 in West 2.0 mph 4.0 mph 94 % 0.01 in 118 W/m2
14:07 38.1 °F 36.5 °F 29.52 in West 1.0 mph 4.0 mph 94 % 0.01 in 77 W/m2
14:12 38.1 °F 36.5 °F 29.52 in West 2.0 mph 4.0 mph 94 % 0.01 in 65 W/m2
14:17 37.9 °F 36.4 °F 29.52 in Calm   3.0 mph 94 % 0.01 in 81 W/m2
14:22 37.9 °F 36.4 °F 29.52 in West 1.0 mph 4.0 mph 94 % 0.01 in 60 W/m2
14:27 37.9 °F 36.4 °F 29.52 in West 2.0 mph 4.0 mph 94 % 0.00 in 65 W/m2
14:32 37.9 °F 36.4 °F 29.52 in West 3.0 mph 4.0 mph 94 % 0.00 in 178 W/m2
14:37 38.1 °F 36.5 °F 29.52 in West 1.0 mph 3.0 mph 94 % 0.00 in 141 W/m2
14:42 38.5 °F 37.2 °F 29.53 in West 1.0 mph 2.0 mph 95 % 0.00 in 70 W/m2
14:47 38.5 °F 36.9 °F 29.53 in West 1.0 mph 2.0 mph 94 % 0.00 in 49 W/m2
14:52 38.5 °F 36.9 °F 29.53 in West 1.0 mph 2.0 mph 94 % 0.00 in 60 W/m2
14:57 38.1 °F 36.3 °F 29.54 in West 1.0 mph 5.0 mph 93 % 0.00 in 54 W/m2
15:02 38.1 °F 36.3 °F 29.54 in Calm   2.0 mph 93 % 0.00 in 32 W/m2
15:07 37.9 °F 36.1 °F 29.54 in West 1.0 mph 4.0 mph 93 % 0.00 in 35 W/m2
15:12 37.9 °F 36.1 °F 29.54 in Calm     93 % 0.00 in 42 W/m2
15:17 37.6 °F 35.7 °F 29.55 in NW 3.0 mph 6.0 mph 93 % 0.00 in 88 W/m2
15:22 37.4 °F 35.6 °F 29.55 in NW 3.0 mph 6.0 mph 93 % 0.00 in 37 W/m2
15:27 37.2 °F 35.4 °F 29.55 in NW 3.0 mph 6.0 mph 93 % 0.00 in 23 W/m2
15:32 37.0 °F 35.2 °F 29.56 in NW 3.0 mph 5.0 mph 93 % 0.00 in 23 W/m2
15:37 37.0 °F 35.2 °F 29.56 in WNW 2.0 mph 6.0 mph 93 % 0.00 in 23 W/m2
15:42 36.9 °F 35.3 °F 29.56 in WNW 3.0 mph 6.0 mph 94 % 0.00 in 21 W/m2
15:47 36.9 °F 35.3 °F 29.56 in WNW 2.0 mph 5.0 mph 94 % 0.00 in 18 W/m2
15:52 36.7 °F 35.1 °F 29.57 in WNW 3.0 mph 6.0 mph 94 % 0.00 in 18 W/m2
15:57 36.7 °F 34.8 °F 29.57 in WNW 2.0 mph 5.0 mph 93 % 0.00 in 21 W/m2
16:02 36.5 °F 34.9 °F 29.57 in WNW 1.0 mph 4.0 mph 94 % 0.00 in 21 W/m2
16:07 36.3 °F 34.8 °F 29.58 in WNW 3.0 mph 6.0 mph 94 % 0.00 in 16 W/m2
16:12 36.3 °F 34.8 °F 29.58 in WNW 2.0 mph 6.0 mph 94 % 0.00 in 12 W/m2
16:17 36.1 °F 34.6 °F 29.58 in WNW 1.0 mph 2.0 mph 94 % 0.00 in 9 W/m2
16:22 36.0 °F 34.4 °F 29.58 in WNW 1.0 mph 5.0 mph 94 % 0.00 in 5 W/m2
16:27 36.0 °F 34.4 °F 29.59 in WNW 2.0 mph 4.0 mph 94 % 0.00 in 0 W/m2
16:32 36.0 °F 34.4 °F 29.59 in WNW 2.0 mph 4.0 mph 94 % 0.00 in 0 W/m2
16:37 36.0 °F 34.4 °F 29.59 in Calm     94 % 0.00 in 0 W/m2
16:42 35.8 °F 34.2 °F 29.60 in Calm     94 % 0.00 in 0 W/m2
16:47 35.8 °F 34.2 °F 29.60 in Calm     94 % 0.00 in 0 W/m2
16:52 35.6 °F 34.0 °F 29.60 in Calm     94 % 0.00 in 0 W/m2
16:58 35.4 °F 33.9 °F 29.60 in Calm     94 % 0.00 in 0 W/m2
17:03 35.2 °F 33.7 °F 29.61 in Calm     94 % 0.00 in 0 W/m2
17:08 35.1 °F 33.5 °F 29.61 in Calm     94 % 0.00 in 0 W/m2
17:13 34.9 °F 33.3 °F 29.62 in WNW 2.0 mph 5.0 mph 94 % 0.00 in 0 W/m2
17:18 34.9 °F 33.3 °F 29.62 in NW 3.0 mph 6.0 mph 94 % 0.00 in 0 W/m2
17:23 35.1 °F 33.8 °F 29.63 in NW 5.0 mph 8.0 mph 95 % 0.00 in 0 W/m2
17:28 35.1 °F 33.8 °F 29.63 in NW 4.0 mph 6.0 mph 95 % 0.00 in 0 W/m2
17:33 35.1 °F 33.5 °F 29.64 in NW 3.0 mph 7.0 mph 94 % 0.00 in 0 W/m2
17:38 35.1 °F 33.5 °F 29.64 in NW 4.0 mph 8.0 mph 94 % 0.00 in 0 W/m2
17:43 34.9 °F 33.3 °F 29.65 in WNW 3.0 mph 8.0 mph 94 % 0.00 in 0 W/m2
17:48 34.9 °F 33.3 °F 29.65 in WNW 5.0 mph 7.0 mph 94 % 0.00 in 0 W/m2
17:53 34.9 °F 33.3 °F 29.65 in NW 4.0 mph 10.0 mph 94 % 0.00 in 0 W/m2
17:58 34.9 °F 33.3 °F 29.66 in NW 4.0 mph 6.0 mph 94 % 0.00 in 0 W/m2
18:03 34.7 °F 33.2 °F 29.67 in NW 4.0 mph 8.0 mph 94 % 0.00 in 0 W/m2
18:08 34.7 °F 33.2 °F 29.67 in NW 4.0 mph 7.0 mph 94 % 0.00 in 0 W/m2
18:13 34.7 °F 33.2 °F 29.67 in NW 5.0 mph 8.0 mph 94 % 0.00 in 0 W/m2
18:19 34.5 °F 33.0 °F 29.67 in NW 5.0 mph 7.0 mph 94 % 0.00 in 0 W/m2
18:24 34.5 °F 33.0 °F 29.68 in NW 4.0 mph 7.0 mph 94 % 0.00 in 0 W/m2
18:29 34.3 °F 32.8 °F 29.68 in NW 4.0 mph 7.0 mph 94 % 0.00 in 0 W/m2
18:34 34.3 °F 32.8 °F 29.68 in NW 4.0 mph 6.0 mph 94 % 0.00 in 0 W/m2
18:39 34.3 °F 32.8 °F 29.69 in NW 4.0 mph 8.0 mph 94 % 0.00 in 0 W/m2
18:44 34.3 °F 32.8 °F 29.69 in NW 5.0 mph 8.0 mph 94 % 0.00 in 0 W/m2
18:49 34.2 °F 32.6 °F 29.69 in NW 5.0 mph 8.0 mph 94 % 0.00 in 0 W/m2
18:54 34.2 °F 32.6 °F 29.70 in NW 4.0 mph 7.0 mph 94 % 0.00 in 0 W/m2
18:59 34.2 °F 32.6 °F 29.70 in NNW 3.0 mph 5.0 mph 94 % 0.00 in 0 W/m2
19:04 34.0 °F 32.2 °F 29.71 in NW 4.0 mph 6.0 mph 93 % 0.00 in 0 W/m2
19:09 34.0 °F 32.2 °F 29.71 in NW 4.0 mph 6.0 mph 93 % 0.00 in 0 W/m2
19:14 34.0 °F 32.4 °F 29.72 in NW 4.0 mph 8.0 mph 94 % 0.00 in 0 W/m2
19:19 33.8 °F 32.0 °F 29.72 in WNW 5.0 mph 8.0 mph 93 % 0.00 in 0 W/m2
19:24 33.6 °F 31.8 °F 29.73 in WNW 5.0 mph 9.0 mph 93 % 0.00 in 0 W/m2
19:29 33.6 °F 31.8 °F 29.73 in WNW 5.0 mph 9.0 mph 93 % 0.00 in 0 W/m2
19:34 33.6 °F 31.8 °F 29.73 in NW 5.0 mph 8.0 mph 93 % 0.00 in 0 W/m2
19:39 33.6 °F 31.8 °F 29.74 in WNW 5.0 mph 8.0 mph 93 % 0.00 in 0 W/m2
19:44 33.4 °F 31.6 °F 29.74 in NW 5.0 mph 8.0 mph 93 % 0.00 in 0 W/m2
19:49 33.4 °F 31.6 °F 29.74 in WNW 6.0 mph 9.0 mph 93 % 0.00 in 0 W/m2
19:54 33.4 °F 31.6 °F 29.75 in WNW 6.0 mph 10.0 mph 93 % 0.00 in 0 W/m2
19:59 33.4 °F 31.6 °F 29.75 in NW 5.0 mph 9.0 mph 93 % 0.00 in 0 W/m2
20:04 33.4 °F 31.6 °F 29.75 in NW 6.0 mph 10.0 mph 93 % 0.00 in 0 W/m2
20:09 33.4 °F 31.6 °F 29.75 in NW 7.0 mph 10.0 mph 93 % 0.00 in 0 W/m2
20:14 33.4 °F 31.6 °F 29.76 in WNW 6.0 mph 7.0 mph 93 % 0.00 in 0 W/m2
20:19 33.4 °F 31.6 °F 29.76 in WNW 5.0 mph 9.0 mph 93 % 0.00 in 0 W/m2
20:24 33.4 °F 31.6 °F 29.76 in WNW 5.0 mph 9.0 mph 93 % 0.00 in 0 W/m2
20:30 33.4 °F 31.6 °F 29.76 in WNW 5.0 mph 7.0 mph 93 % 0.00 in 0 W/m2
20:34 33.4 °F 31.6 °F 29.76 in WNW 5.0 mph 7.0 mph 93 % 0.00 in 0 W/m2
20:40 33.3 °F 31.5 °F 29.77 in WNW 6.0 mph 7.0 mph 93 % 0.00 in 0 W/m2
20:45 33.1 °F 31.3 °F 29.77 in WNW 6.0 mph 8.0 mph 93 % 0.00 in 0 W/m2
20:50 33.1 °F 31.3 °F 29.77 in NW 4.0 mph 7.0 mph 93 % 0.00 in 0 W/m2
20:55 33.1 °F 31.3 °F 29.77 in WNW 6.0 mph 8.0 mph 93 % 0.00 in 0 W/m2
21:00 33.1 °F 31.5 °F 29.78 in WNW 6.0 mph 10.0 mph 94 % 0.00 in 0 W/m2
21:05 33.1 °F 31.3 °F 29.78 in WNW 6.0 mph 10.0 mph 93 % 0.00 in 0 W/m2
21:10 33.1 °F 31.3 °F 29.78 in WNW 5.0 mph 8.0 mph 93 % 0.00 in 0 W/m2
21:15 33.1 °F 31.5 °F 29.78 in NW 5.0 mph 8.0 mph 94 % 0.00 in 0 W/m2
21:20 33.1 °F 31.5 °F 29.79 in WNW 4.0 mph 7.0 mph 94 % 0.00 in 0 W/m2
21:25 33.1 °F 31.3 °F 29.79 in NW 5.0 mph 8.0 mph 93 % 0.00 in 0 W/m2
21:30 33.1 °F 31.3 °F 29.79 in WNW 5.0 mph 9.0 mph 93 % 0.00 in 0 W/m2
21:35 33.1 °F 31.3 °F 29.79 in WNW 6.0 mph 8.0 mph 93 % 0.00 in 0 W/m2
21:40 33.1 °F 31.5 °F 29.80 in WNW 7.0 mph 9.0 mph 94 % 0.00 in 0 W/m2
21:45 33.1 °F 31.5 °F 29.80 in WNW 6.0 mph 8.0 mph 94 % 0.00 in 0 W/m2
21:50 33.1 °F 31.3 °F 29.80 in NW 6.0 mph 10.0 mph 93 % 0.00 in 0 W/m2
21:55 33.1 °F 31.3 °F 29.80 in WNW 6.0 mph 9.0 mph 93 % 0.00 in 0 W/m2
22:00 33.1 °F 31.3 °F 29.80 in NW 6.0 mph 8.0 mph 93 % 0.00 in 0 W/m2
22:05 33.1 °F 31.5 °F 29.81 in NW 6.0 mph 9.0 mph 94 % 0.00 in 0 W/m2
22:10 33.1 °F 31.5 °F 29.81 in WNW 5.0 mph 11.0 mph 94 % 0.00 in 0 W/m2
22:15 33.1 °F 31.3 °F 29.81 in WNW 5.0 mph 8.0 mph 93 % 0.00 in 0 W/m2
22:20 33.1 °F 31.3 °F 29.82 in WNW 5.0 mph 9.0 mph 93 % 0.00 in 0 W/m2
22:25 32.9 °F 31.1 °F 29.82 in WNW 2.0 mph 2.0 mph 93 % 0.00 in 0 W/m2
22:30 32.5 °F 30.5 °F 29.82 in WNW 1.0 mph 4.0 mph 92 % 0.00 in 0 W/m2
22:35 32.4 °F 30.3 °F 29.83 in WNW 2.0 mph 3.0 mph 92 % 0.00 in 0 W/m2
22:40 32.2 °F 30.1 °F 29.83 in WNW 3.0 mph 6.0 mph 92 % 0.00 in 0 W/m2
22:46 31.8 °F 29.8 °F 29.84 in WNW 4.0 mph 7.0 mph 92 % 0.00 in 0 W/m2
22:50 31.8 °F 30.0 °F 29.84 in WNW 2.0 mph 5.0 mph 93 % 0.00 in 0 W/m2
22:56 31.8 °F 30.0 °F 29.84 in WNW 5.0 mph 8.0 mph 93 % 0.00 in 0 W/m2
23:01 32.2 °F 30.4 °F 29.84 in WNW 5.0 mph 9.0 mph 93 % 0.00 in 0 W/m2
23:06 32.2 °F 30.4 °F 29.84 in WNW 5.0 mph 8.0 mph 93 % 0.00 in 0 W/m2
23:11 32.2 °F 30.4 °F 29.84 in WNW 3.0 mph 6.0 mph 93 % 0.00 in 0 W/m2
23:16 32.2 °F 30.4 °F 29.84 in West 2.0 mph 4.0 mph 93 % 0.00 in 0 W/m2
23:21 32.2 °F 30.4 °F 29.84 in Calm     93 % 0.00 in 0 W/m2
23:26 31.8 °F 29.8 °F 29.85 in Calm     92 % 0.00 in 0 W/m2
23:31 31.6 °F 29.6 °F 29.85 in Calm     92 % 0.00 in 0 W/m2
23:36 31.3 °F 29.2 °F 29.85 in Calm   1.0 mph 92 % 0.00 in 0 W/m2
23:41 30.9 °F 28.9 °F 29.86 in Calm     92 % 0.00 in 0 W/m2
23:46 30.7 °F 28.7 °F 29.86 in Calm     92 % 0.00 in 0 W/m2
23:51 30.7 °F 29.0 °F 29.86 in Calm     93 % 0.00 in 0 W/m2
23:56 30.6 °F 28.8 °F 29.85 in Calm   1.0 mph 93 % 0.00 in 0 W/m2
Delerius-Weather
Compliments of Weather Underground - 2.25 mb

Data updates at regular intervals.